LF7327 weather

Altiport de Val Thorens
Saint--Martin-de-Belleville, Rhône Alpes, France

Public forecast

Using degrees Celsius for public forecast. Weather courtesy of forecast.io.

Closest aviation weather report (METAR) to Altiport de Val Thorens

Closest report is Chambéry-Savoie Airport, 36.2 nm (67.0 km) NW. Retrieved 2019/10/18 13:30 UTC (0 seconds ago):

LFLB 181330Z AUTO 18007KT 9999 FEW062 SCT074 OVC150 20/12 Q1014 TEMPO SCT050TCU

Closest aviation forecast (TAF) to Altiport de Val Thorens

Closest forecast is Chambéry-Savoie Airport, 36.2 nm (67.0 km) NW. Retrieved 2019/10/18 12:42 UTC (37 minutes ago):

TAF LFLB 181100Z 1812/1912 18008KT 9999 SCT060 BKN085 TEMPO 1812/1816 -SHRA SCT050TCU TEMPO 1816/1821 4000 -SHRA BKN013 BKN040TCU TEMPO 1904/1912 -SHRA SCT070TCU PROB40 TEMPO 1910/1912 VRB15KT 3000 TSRA BKN030CB